Greenbush, Illinois
Current Conditions -  °F | °C
As of 8:15 AM on Friday 19 Dec 2014 (Local Time) from KMQB Reporting Station
Haze Haze  
Wind Chill: 19°   Ceiling: 4400
Heat Index: 26°   Visibility: 5mi
Dew Point: 23°   Wind: 6mph
Humidity: 90%   Direction: 100°E
Pressure: 30.34"   Gusts: NA
Location:  40.6414°N, 90.4243°W
Report Text: KMQB 191415Z AUTO 10005KT 5SM BR OVC044 M04/M05 A3034 RMK AO2 T10361050
Loading
Personal Weather Stations






























Interactive Weather Map New forecast layout! Learn more

10-Day Weather Forecast

Advertisements
Track Severe Weather on mobile